Huvudsida
METAR-TAF:

METAR-TAF

Flygplatser :

Irkutsk, Ryssland

latitud: 52-16N, longitud: 104-19E, höjd: 513 m

Aktuellt väderrapport

Denna rapport gjordes för 17 minuter sedan, klockan 23:30 UTC
Vind 4 kt från ost
Temperatur 14°C
Fuktighet 94%
Tryck 1008 hPa
Sikt: 4500 m
fuktdis

METAR: UIII 222330Z 08002MPS 4500 BR NSC 14/13 Q1008 R12/CLRD60 NOSIG RMK QFE714/0952

Tid: 07:47 (23:47 UTC)

Väderprognos

Denna rapport gjordes för 47 minuter sedan, klockan 23:00 UTC
Prognos gäller från 23 kl. 00 UTC till 23 kl. 24 UTC
Vind 6 kt från syd/sydost
Sikt: 3100 m
rök
Temporärt
från 23 kl. 00 UTC till 23 kl. 03 UTC
Sikt: 2500 m
fuktdis, rök
Blir
från 23 kl. 09 UTC till 23 kl. 11 UTC
Spridda moln på en höjd av 2000 ft, Cumulonimbus.

TAF: UIII 222300Z 2300/2324 15003MPS 3100 FU NSC TEMPO 2300/2303 2500 BR FU BECMG 2309/2311 SCT020CB

Aktuella väderrapporter och prognoser från 4000 flygplatser (METAR- och TAF-rapporter).

De tillgängliga stationerna syns som gula och röda prickar på kartan.

För musen över prickarna för att se namnen på stationerna.

Klicka sedan för att få väderrapporter och prognoser.

För att ändra kartan: Klicka på de gröna knapparna med ett svart kors på för att zooma in; den gröna knappen med ett streck på för att zooma ut; eller på de gröna pilarna för angränsande kartor.


METAR-TAF: